createdAt,value
2022-07-26T00:04:32.469Z,163.4
2022-07-26T00:09:35.050Z,134.2
2022-07-26T00:14:37.507Z,106.6
2022-07-26T00:19:42.829Z,77.8
2022-07-26T00:24:45.587Z,72.1
2022-07-26T00:29:48.334Z,53
2022-07-26T00:34:51.135Z,48.5
2022-07-26T00:39:53.762Z,45
2022-07-26T00:44:56.458Z,46.5
2022-07-26T00:49:58.788Z,36.1
2022-07-26T00:55:01.289Z,36.5
2022-07-26T01:00:03.780Z,25.4
2022-07-26T01:05:06.029Z,29.7
2022-07-26T01:10:08.556Z,21
2022-07-26T01:15:10.972Z,19.4
2022-07-26T01:20:14.132Z,18.8
2022-07-26T01:25:16.948Z,17
2022-07-26T01:30:19.622Z,16.3
2022-07-26T01:35:22.009Z,15.8
2022-07-26T01:40:29.772Z,15.2
2022-07-26T01:45:32.618Z,14
2022-07-26T01:50:35.334Z,15.4
2022-07-26T01:55:37.853Z,11.5
2022-07-26T02:00:40.420Z,13.5
2022-07-26T02:05:43.091Z,13.6
2022-07-26T02:10:45.876Z,12.7
2022-07-26T02:15:50.495Z,12.3
2022-07-26T02:20:54.050Z,15.3
2022-07-26T02:25:56.787Z,12.6
2022-07-26T02:31:00.571Z,10
2022-07-26T02:36:04.124Z,9.7
2022-07-26T02:41:06.665Z,9.5
2022-07-26T02:46:09.904Z,10.1
2022-07-26T02:51:12.462Z,8.4
2022-07-26T02:56:14.975Z,9.5
2022-07-26T03:01:17.513Z,11.6
2022-07-26T03:06:19.881Z,10.3
2022-07-26T03:11:23.044Z,10.8
2022-07-26T03:16:29.338Z,11.4
2022-07-26T03:21:32.256Z,10.1
2022-07-26T03:26:34.946Z,9.4
2022-07-26T03:31:37.594Z,11
2022-07-26T03:36:40.600Z,9.7
2022-07-26T03:41:43.793Z,11.1
2022-07-26T03:46:46.824Z,9.7
2022-07-26T03:51:49.307Z,12.8
2022-07-26T03:56:51.767Z,13
2022-07-26T04:01:54.509Z,12
2022-07-26T04:06:57.655Z,11.9
2022-07-26T04:11:59.198Z,10.2
2022-07-26T04:17:01.678Z,9.4
2022-07-26T04:22:04.538Z,8.5
2022-07-26T04:27:07.031Z,10.2
2022-07-26T04:32:09.704Z,9.4
2022-07-26T04:37:12.015Z,10.1
2022-07-26T04:42:14.444Z,10.2
2022-07-26T04:47:16.890Z,9.7
2022-07-26T04:52:19.457Z,11.7
2022-07-26T04:57:22.032Z,14.5
2022-07-26T05:02:24.806Z,11.3
2022-07-26T05:07:25.831Z,10.8
2022-07-26T05:12:28.381Z,11.4
2022-07-26T05:17:30.872Z,13.1
2022-07-26T05:22:39.774Z,11.3
2022-07-26T05:27:42.476Z,8.9
2022-07-26T05:32:44.968Z,11.8
2022-07-26T05:37:47.554Z,11.9
2022-07-26T05:42:50.066Z,8.9
2022-07-26T05:47:53.625Z,9
2022-07-26T05:52:56.000Z,10.1
2022-07-26T05:57:58.367Z,10.9
2022-07-26T06:03:01.367Z,8.6
2022-07-26T06:08:04.060Z,12.3
2022-07-26T06:13:06.295Z,12.2
2022-07-26T06:18:08.825Z,9.4
2022-07-26T06:23:11.762Z,18.5
2022-07-26T06:28:14.428Z,16.1
2022-07-26T06:33:16.822Z,7.9
2022-07-26T06:38:19.102Z,9.5
2022-07-26T06:43:21.529Z,17.4
2022-07-26T06:48:22.471Z,6.7
2022-07-26T06:53:25.707Z,12.4
2022-07-26T06:58:28.732Z,15.2
2022-07-26T07:03:31.215Z,9.8
2022-07-26T07:08:33.792Z,11.5
2022-07-26T07:13:38.957Z,11.8
2022-07-26T07:18:41.751Z,8.8
2022-07-26T07:23:44.091Z,9.4
2022-07-26T07:28:47.189Z,10.8
2022-07-26T07:33:56.185Z,10.7
2022-07-26T07:39:01.908Z,8.5
2022-07-26T07:44:08.364Z,6.3
2022-07-26T07:49:13.801Z,9.4
2022-07-26T07:54:16.613Z,19.9
2022-07-26T07:59:22.836Z,8.5
2022-07-26T08:04:26.338Z,9.6
2022-07-26T08:09:29.171Z,8
2022-07-26T08:14:32.629Z,8.5
2022-07-26T08:19:41.427Z,9.3
2022-07-26T08:24:45.370Z,9.1
2022-07-26T08:29:48.031Z,8.4
2022-07-26T08:34:50.793Z,16.7
2022-07-26T08:39:56.577Z,8.9
2022-07-26T08:45:00.781Z,5.8
2022-07-26T08:50:04.904Z,15.7
2022-07-26T08:55:07.372Z,11.6
2022-07-26T09:00:09.691Z,8
2022-07-26T09:05:12.268Z,8.6
2022-07-26T09:10:15.820Z,7.6
2022-07-26T09:15:18.566Z,7.2
2022-07-26T09:20:24.182Z,7.6
2022-07-26T09:25:30.244Z,9
2022-07-26T09:30:32.785Z,13.5
2022-07-26T09:35:52.013Z,6.8
2022-07-26T09:40:47.349Z,6
2022-07-26T09:45:53.869Z,7.2
2022-07-26T09:51:02.944Z,9.3
2022-07-26T09:56:05.725Z,5.9
2022-07-26T10:01:08.562Z,5.5
2022-07-26T10:06:10.798Z,11.1
2022-07-26T10:11:13.143Z,10.2
2022-07-26T10:16:14.043Z,6.7
2022-07-26T10:21:15.034Z,8.2
2022-07-26T10:26:17.451Z,8.9
2022-07-26T10:31:19.808Z,7.4
2022-07-26T10:36:22.531Z,7.9
2022-07-26T10:41:27.564Z,8.2
2022-07-26T10:46:30.215Z,10
2022-07-26T10:51:33.149Z,11.4
2022-07-26T10:56:35.697Z,10.8
2022-07-26T11:01:38.060Z,10.6
2022-07-26T11:06:41.391Z,13.8
2022-07-26T11:11:46.206Z,17.4
2022-07-26T11:16:49.579Z,12
2022-07-26T11:21:52.543Z,16
2022-07-26T11:26:55.224Z,11.5
2022-07-26T11:31:59.813Z,13
2022-07-26T11:37:00.279Z,18.3
2022-07-26T11:42:03.056Z,27.3
2022-07-26T11:47:05.612Z,25.2
2022-07-26T11:52:08.174Z,37
2022-07-26T11:57:10.443Z,43.3
2022-07-26T12:02:11.367Z,36.4
2022-07-26T12:07:14.140Z,39.7
2022-07-26T12:12:17.462Z,97.5
2022-07-26T12:17:21.190Z,99
2022-07-26T12:22:23.836Z,755
2022-07-26T12:27:26.853Z,793.6
2022-07-26T12:32:29.778Z,952.8
2022-07-26T12:37:37.797Z,764.4
2022-07-26T12:42:34.549Z,652.1
2022-07-26T12:47:37.395Z,13.5
2022-07-26T12:52:40.036Z,31.2
2022-07-26T12:57:45.902Z,10
2022-07-26T13:02:47.237Z,13.3
2022-07-26T13:07:50.381Z,20.3
2022-07-26T13:12:53.617Z,6.6
2022-07-26T13:17:56.324Z,8.7
2022-07-26T13:22:58.875Z,9.8
2022-07-26T13:28:01.462Z,7.7
2022-07-26T13:33:04.366Z,7.2
2022-07-26T13:38:06.815Z,6.1
2022-07-26T13:43:09.175Z,7.2
2022-07-26T13:48:11.522Z,13.4
2022-07-26T13:53:14.139Z,16.4
2022-07-26T13:58:17.655Z,20.2
2022-07-26T14:03:20.154Z,8.8
2022-07-26T14:08:23.159Z,10.9
2022-07-26T14:13:25.492Z,8.9
2022-07-26T14:18:28.549Z,12.4
2022-07-26T14:23:30.940Z,8.6
2022-07-26T14:28:34.155Z,7.9
2022-07-26T14:33:37.052Z,10
2022-07-26T14:38:39.694Z,7.7
2022-07-26T14:43:42.002Z,10
2022-07-26T14:48:54.319Z,6.4
2022-07-26T14:53:57.631Z,6.5
2022-07-26T14:59:00.586Z,9
2022-07-26T15:04:05.892Z,9.5
2022-07-26T15:09:12.453Z,6.6
2022-07-26T15:14:15.492Z,5.7
2022-07-26T15:19:22.242Z,5.1
2022-07-26T15:24:27.951Z,5.7
2022-07-26T15:29:30.414Z,5.9
2022-07-26T15:34:32.996Z,6.4
2022-07-26T15:39:36.044Z,6.9
2022-07-26T15:44:38.378Z,4.3
2022-07-26T15:49:41.912Z,5.9
2022-07-26T15:54:44.680Z,6.9
2022-07-26T15:59:47.852Z,4.4
2022-07-26T16:04:50.375Z,6.6
2022-07-26T16:09:52.826Z,4.7
2022-07-26T16:14:55.211Z,4
2022-07-26T16:19:58.015Z,4.6
2022-07-26T16:25:00.842Z,8.9
2022-07-26T16:30:01.591Z,5.2
2022-07-26T16:35:04.509Z,6.5
2022-07-26T16:40:07.067Z,4.5
2022-07-26T16:45:09.669Z,4.7
2022-07-26T16:50:12.472Z,6.4
2022-07-26T16:55:19.123Z,4.2
2022-07-26T17:00:21.957Z,6.1
2022-07-26T17:05:24.675Z,5.7
2022-07-26T17:10:27.221Z,5.4
2022-07-26T17:15:29.991Z,6.1
2022-07-26T17:20:33.019Z,4.8
2022-07-26T17:25:38.359Z,5.9
2022-07-26T17:30:40.977Z,5.4
2022-07-26T17:35:43.594Z,5.9
2022-07-26T17:40:44.764Z,8.5
2022-07-26T17:45:51.093Z,6.1
2022-07-26T17:50:53.900Z,6.4
2022-07-26T17:55:56.611Z,5.4
2022-07-26T18:00:59.258Z,5.4
2022-07-26T18:06:02.027Z,7
2022-07-26T18:11:05.476Z,6.1
2022-07-26T18:16:08.616Z,7.2
2022-07-26T18:21:11.479Z,6.5
2022-07-26T18:26:14.439Z,9.9
2022-07-26T18:31:18.505Z,6.6
2022-07-26T18:36:21.822Z,7.2
2022-07-26T18:41:24.673Z,6.4
2022-07-26T18:46:34.028Z,6.1
2022-07-26T18:51:37.575Z,7.2
2022-07-26T18:56:43.011Z,7.4
2022-07-26T19:01:45.755Z,6.2
2022-07-26T19:06:49.263Z,6
2022-07-26T19:11:52.801Z,7.7
2022-07-26T19:16:56.116Z,7.1
2022-07-26T19:21:59.109Z,7.8
2022-07-26T19:27:01.704Z,8.2
2022-07-26T19:32:04.535Z,8.1
2022-07-26T19:37:07.969Z,8.3
2022-07-26T19:42:11.011Z,7.4
2022-07-26T19:47:14.283Z,8
2022-07-26T19:52:17.039Z,9.4
2022-07-26T19:57:18.161Z,9
2022-07-26T20:02:20.937Z,7.5
2022-07-26T20:07:28.430Z,9.1
2022-07-26T20:12:31.070Z,7.6
2022-07-26T20:17:33.922Z,9.6
2022-07-26T20:22:36.919Z,8.5
2022-07-26T20:27:39.897Z,9.7
2022-07-26T20:32:47.689Z,12.1
2022-07-26T20:37:51.048Z,8.6
2022-07-26T20:42:54.244Z,10.8
2022-07-26T20:47:55.049Z,9.8
2022-07-26T20:52:58.062Z,9.3
2022-07-26T20:58:00.830Z,10
2022-07-26T21:03:03.632Z,10
2022-07-26T21:08:06.062Z,10.1
2022-07-26T21:13:08.948Z,10.8
2022-07-26T21:18:12.277Z,10.8
2022-07-26T21:23:17.948Z,9.9
2022-07-26T21:28:22.864Z,19.6
2022-07-26T21:33:27.568Z,18
2022-07-26T21:38:28.506Z,10.4
2022-07-26T21:43:31.968Z,10.7
2022-07-26T21:48:36.088Z,11
2022-07-26T21:53:39.115Z,10.1
2022-07-26T21:58:42.482Z,11.7
2022-07-26T22:03:47.595Z,12.3
2022-07-26T22:08:50.074Z,12
2022-07-26T22:13:53.299Z,11
2022-07-26T22:18:56.018Z,11.7
2022-07-26T22:24:02.215Z,11.3
2022-07-26T22:29:05.424Z,11.1
2022-07-26T22:34:08.189Z,11.8
2022-07-26T22:39:11.006Z,11.6
2022-07-26T22:44:16.381Z,12.2
2022-07-26T22:49:19.204Z,11.8
2022-07-26T22:54:22.383Z,10.7
2022-07-26T22:59:25.862Z,11.3
2022-07-26T23:04:28.307Z,11.2
2022-07-26T23:09:34.185Z,11.2
2022-07-26T23:14:36.936Z,10.4
2022-07-26T23:19:39.613Z,11.3
2022-07-26T23:24:43.595Z,11
2022-07-26T23:29:46.838Z,9.9
2022-07-26T23:34:51.365Z,10.5
2022-07-26T23:39:54.417Z,9.5
2022-07-26T23:44:57.653Z,10.1
2022-07-26T23:50:01.227Z,10.3
2022-07-26T23:55:04.022Z,11.2
